sensor_id;sensor_type;location;lat;lon;timestamp;pressure;altitude;pressure_sealevel;temperature;humidity
9091;BME280;4581;42.416;25.598;2023-04-27T00:01:12;66544.03;;;0.00;nan
9091;BME280;4581;42.416;25.598;2023-04-27T00:03:39;66536.41;;;0.00;nan
9091;BME280;4581;42.416;25.598;2023-04-27T00:06:07;66548.59;;;0.00;nan
9091;BME280;4581;42.416;25.598;2023-04-27T00:08:35;66560.81;;;0.00;nan
9091;BME280;4581;42.416;25.598;2023-04-27T00:11:02;66565.38;;;0.00;nan
9091;BME280;4581;42.416;25.598;2023-04-27T00:13:29;66553.19;;;0.00;nan
9091;BME280;4581;42.416;25.598;2023-04-27T00:15:56;66566.91;;;0.00;nan
9091;BME280;4581;42.416;25.598;2023-04-27T00:18:22;66574.53;;;0.00;nan
9091;BME280;4581;42.416;25.598;2023-04-27T00:20:49;66591.31;;;0.00;nan
9091;BME280;4581;42.416;25.598;2023-04-27T00:23:16;66595.91;;;0.00;nan
9091;BME280;4581;42.416;25.598;2023-04-27T00:25:43;66602.00;;;0.00;nan
9091;BME280;4581;42.416;25.598;2023-04-27T00:28:09;66594.38;;;0.00;nan
9091;BME280;4581;42.416;25.598;2023-04-27T00:30:36;66611.16;;;0.00;nan
9091;BME280;4581;42.416;25.598;2023-04-27T00:33:03;66620.31;;;0.00;nan
9091;BME280;4581;42.416;25.598;2023-04-27T00:35:31;66627.94;;;0.00;nan
9091;BME280;4581;42.416;25.598;2023-04-27T00:37:58;66643.22;;;0.00;nan
9091;BME280;4581;42.416;25.598;2023-04-27T00:40:25;66641.69;;;0.00;nan
9091;BME280;4581;42.416;25.598;2023-04-27T00:42:51;66647.78;;;0.00;nan
9091;BME280;4581;42.416;25.598;2023-04-27T00:45:18;66647.78;;;0.00;nan
9091;BME280;4581;42.416;25.598;2023-04-27T00:47:45;66644.72;;;0.00;nan
9091;BME280;4581;42.416;25.598;2023-04-27T00:50:13;66641.69;;;0.00;nan
9091;BME280;4581;42.416;25.598;2023-04-27T00:52:40;66646.25;;;0.00;nan
9091;BME280;4581;42.416;25.598;2023-04-27T00:55:07;66647.78;;;0.00;nan
9091;BME280;4581;42.416;25.598;2023-04-27T00:57:34;66658.47;;;0.00;nan
9091;BME280;4581;42.416;25.598;2023-04-27T01:00:02;66656.94;;;0.00;nan
9091;BME280;4581;42.416;25.598;2023-04-27T01:02:31;66660.00;;;0.00;nan
9091;BME280;4581;42.416;25.598;2023-04-27T01:04:58;66656.94;;;0.00;nan
9091;BME280;4581;42.416;25.598;2023-04-27T01:07:26;66667.63;;;0.00;nan
9091;BME280;4581;42.416;25.598;2023-04-27T01:09:53;66666.09;;;0.00;nan
9091;BME280;4581;42.416;25.598;2023-04-27T01:12:19;66663.03;;;0.00;nan
9091;BME280;4581;42.416;25.598;2023-04-27T01:14:46;66669.16;;;0.00;nan
9091;BME280;4581;42.416;25.598;2023-04-27T01:17:13;66667.63;;;0.00;nan
9091;BME280;4581;42.416;25.598;2023-04-27T01:19:40;66666.09;;;0.00;nan
9091;BME280;4581;42.416;25.598;2023-04-27T01:22:07;66675.25;;;0.00;nan
9091;BME280;4581;42.416;25.598;2023-04-27T01:24:34;66679.84;;;0.00;nan
9091;BME280;4581;42.416;25.598;2023-04-27T01:27:02;66684.41;;;0.00;nan
9091;BME280;4581;42.416;25.598;2023-04-27T01:29:29;66682.88;;;0.00;nan
9091;BME280;4581;42.416;25.598;2023-04-27T01:31:56;66687.47;;;0.00;nan
9091;BME280;4581;42.416;25.598;2023-04-27T01:34:23;66682.88;;;0.00;nan
9091;BME280;4581;42.416;25.598;2023-04-27T01:36:49;66670.69;;;0.00;nan
9091;BME280;4581;42.416;25.598;2023-04-27T01:39:16;66678.31;;;0.00;nan
9091;BME280;4581;42.416;25.598;2023-04-27T01:41:43;66678.31;;;0.00;nan
9091;BME280;4581;42.416;25.598;2023-04-27T01:44:09;66675.25;;;0.00;nan
9091;BME280;4581;42.416;25.598;2023-04-27T01:46:37;66678.31;;;0.00;nan
9091;BME280;4581;42.416;25.598;2023-04-27T01:49:04;66681.34;;;0.00;nan
9091;BME280;4581;42.416;25.598;2023-04-27T01:51:31;66676.78;;;0.00;nan
9091;BME280;4581;42.416;25.598;2023-04-27T01:53:58;66692.03;;;0.00;nan
9091;BME280;4581;42.416;25.598;2023-04-27T01:56:25;66687.47;;;0.00;nan
9091;BME280;4581;42.416;25.598;2023-04-27T01:58:52;66696.63;;;0.00;nan
9091;BME280;4581;42.416;25.598;2023-04-27T02:01:19;66685.94;;;0.00;nan
9091;BME280;4581;42.416;25.598;2023-04-27T02:03:45;66689.00;;;0.00;nan
9091;BME280;4581;42.416;25.598;2023-04-27T02:06:12;66696.63;;;0.00;nan
9091;BME280;4581;42.416;25.598;2023-04-27T02:08:39;66707.28;;;0.00;nan
9091;BME280;4581;42.416;25.598;2023-04-27T02:11:06;66702.72;;;0.00;nan
9091;BME280;4581;42.416;25.598;2023-04-27T02:13:33;66702.72;;;0.00;nan
9091;BME280;4581;42.416;25.598;2023-04-27T02:15:59;66696.63;;;0.00;nan
9091;BME280;4581;42.416;25.598;2023-04-27T02:18:28;66701.19;;;0.00;nan
9091;BME280;4581;42.416;25.598;2023-04-27T02:20:55;66707.28;;;0.00;nan
9091;BME280;4581;42.416;25.598;2023-04-27T02:23:22;66708.81;;;0.00;nan
9091;BME280;4581;42.416;25.598;2023-04-27T02:25:49;66724.09;;;0.00;nan
9091;BME280;4581;42.416;25.598;2023-04-27T02:28:16;66724.09;;;0.00;nan
9091;BME280;4581;42.416;25.598;2023-04-27T02:30:43;66731.72;;;0.00;nan
9091;BME280;4581;42.416;25.598;2023-04-27T02:33:10;66739.34;;;0.00;nan
9091;BME280;4581;42.416;25.598;2023-04-27T02:35:37;66745.44;;;0.00;nan
9091;BME280;4581;42.416;25.598;2023-04-27T02:38:03;66753.06;;;0.00;nan
9091;BME280;4581;42.416;25.598;2023-04-27T02:40:30;66760.69;;;0.00;nan
9091;BME280;4581;42.416;25.598;2023-04-27T02:42:57;66759.19;;;0.00;nan
9091;BME280;4581;42.416;25.598;2023-04-27T02:45:23;66760.69;;;0.00;nan
9091;BME280;4581;42.416;25.598;2023-04-27T02:47:50;66762.22;;;0.00;nan
9091;BME280;4581;42.416;25.598;2023-04-27T02:50:17;66766.81;;;0.00;nan
9091;BME280;4581;42.416;25.598;2023-04-27T02:52:43;66768.34;;;0.00;nan
9091;BME280;4581;42.416;25.598;2023-04-27T02:55:10;66766.81;;;0.00;nan
9091;BME280;4581;42.416;25.598;2023-04-27T02:57:37;66766.81;;;0.00;nan
9091;BME280;4581;42.416;25.598;2023-04-27T03:00:04;66765.28;;;0.00;nan
9091;BME280;4581;42.416;25.598;2023-04-27T03:02:32;66768.34;;;0.00;nan
9091;BME280;4581;42.416;25.598;2023-04-27T03:04:59;66760.69;;;0.00;nan
9091;BME280;4581;42.416;25.598;2023-04-27T03:07:26;66777.50;;;0.00;nan
9091;BME280;4581;42.416;25.598;2023-04-27T03:09:52;66777.50;;;0.00;nan
9091;BME280;4581;42.416;25.598;2023-04-27T03:12:19;66779.00;;;0.00;nan
9091;BME280;4581;42.416;25.598;2023-04-27T03:14:46;66785.13;;;0.00;nan
9091;BME280;4581;42.416;25.598;2023-04-27T03:17:12;66775.97;;;0.00;nan
9091;BME280;4581;42.416;25.598;2023-04-27T03:19:39;66772.91;;;0.00;nan
9091;BME280;4581;42.416;25.598;2023-04-27T03:22:06;66782.06;;;0.00;nan
9091;BME280;4581;42.416;25.598;2023-04-27T03:24:33;66780.53;;;0.00;nan
9091;BME280;4581;42.416;25.598;2023-04-27T03:27:00;66786.66;;;0.00;nan
9091;BME280;4581;42.416;25.598;2023-04-27T03:29:28;66783.59;;;0.00;nan
9091;BME280;4581;42.416;25.598;2023-04-27T03:31:55;66785.13;;;0.00;nan
9091;BME280;4581;42.416;25.598;2023-04-27T03:34:22;66785.13;;;0.00;nan
9091;BME280;4581;42.416;25.598;2023-04-27T03:36:48;66794.28;;;0.00;nan
9091;BME280;4581;42.416;25.598;2023-04-27T03:39:16;66791.22;;;0.00;nan
9091;BME280;4581;42.416;25.598;2023-04-27T03:41:43;66792.75;;;0.00;nan
9091;BME280;4581;42.416;25.598;2023-04-27T03:44:09;66791.22;;;0.00;nan
9091;BME280;4581;42.416;25.598;2023-04-27T03:46:36;66800.38;;;0.00;nan
9091;BME280;4581;42.416;25.598;2023-04-27T03:49:03;66798.84;;;0.00;nan
9091;BME280;4581;42.416;25.598;2023-04-27T03:51:30;66806.47;;;0.00;nan
9091;BME280;4581;42.416;25.598;2023-04-27T03:53:59;66806.47;;;0.00;nan
9091;BME280;4581;42.416;25.598;2023-04-27T03:56:26;66809.53;;;0.00;nan
9091;BME280;4581;42.416;25.598;2023-04-27T03:58:53;66804.94;;;0.00;nan
9091;BME280;4581;42.416;25.598;2023-04-27T04:01:20;66803.44;;;0.00;nan
9091;BME280;4581;42.416;25.598;2023-04-27T04:03:47;66798.84;;;0.00;nan
9091;BME280;4581;42.416;25.598;2023-04-27T04:06:14;66812.59;;;0.00;nan
9091;BME280;4581;42.416;25.598;2023-04-27T04:08:41;66809.53;;;0.00;nan
9091;BME280;4581;42.416;25.598;2023-04-27T04:11:07;66806.47;;;0.00;nan
9091;BME280;4581;42.416;25.598;2023-04-27T04:13:34;66812.59;;;0.00;nan
9091;BME280;4581;42.416;25.598;2023-04-27T04:16:06;66815.63;;;0.00;nan
9091;BME280;4581;42.416;25.598;2023-04-27T04:18:34;66812.59;;;0.00;nan
9091;BME280;4581;42.416;25.598;2023-04-27T04:21:01;66821.75;;;0.00;nan
9091;BME280;4581;42.416;25.598;2023-04-27T04:23:28;66818.69;;;0.00;nan
9091;BME280;4581;42.416;25.598;2023-04-27T04:25:55;66814.09;;;0.00;nan
9091;BME280;4581;42.416;25.598;2023-04-27T04:28:23;66827.84;;;0.00;nan
9091;BME280;4581;42.416;25.598;2023-04-27T04:30:50;66829.38;;;0.00;nan
9091;BME280;4581;42.416;25.598;2023-04-27T04:33:17;66824.78;;;0.00;nan
9091;BME280;4581;42.416;25.598;2023-04-27T04:35:44;66830.91;;;0.00;nan
9091;BME280;4581;42.416;25.598;2023-04-27T04:38:12;66824.78;;;0.00;nan
9091;BME280;4581;42.416;25.598;2023-04-27T04:40:39;66821.75;;;0.00;nan
9091;BME280;4581;42.416;25.598;2023-04-27T04:43:08;66824.78;;;0.00;nan
9091;BME280;4581;42.416;25.598;2023-04-27T04:45:35;66832.41;;;0.00;nan
9091;BME280;4581;42.416;25.598;2023-04-27T04:48:02;66830.91;;;0.00;nan
9091;BME280;4581;42.416;25.598;2023-04-27T04:50:29;66835.47;;;0.00;nan
9091;BME280;4581;42.416;25.598;2023-04-27T04:52:56;66829.38;;;0.00;nan
9091;BME280;4581;42.416;25.598;2023-04-27T04:55:25;66830.91;;;0.00;nan
9091;BME280;4581;42.416;25.598;2023-04-27T04:57:52;66824.78;;;0.00;nan
9091;BME280;4581;42.416;25.598;2023-04-27T05:00:19;66833.94;;;0.00;nan
9091;BME280;4581;42.416;25.598;2023-04-27T05:02:46;66835.47;;;0.00;nan
9091;BME280;4581;42.416;25.598;2023-04-27T05:05:12;66841.56;;;0.00;nan
9091;BME280;4581;42.416;25.598;2023-04-27T05:07:39;66827.84;;;0.00;nan
9091;BME280;4581;42.416;25.598;2023-04-27T05:10:06;66833.94;;;0.00;nan
9091;BME280;4581;42.416;25.598;2023-04-27T05:12:33;66833.94;;;0.00;nan
9091;BME280;4581;42.416;25.598;2023-04-27T05:15:00;66821.75;;;0.00;nan
9091;BME280;4581;42.416;25.598;2023-04-27T05:17:26;66814.09;;;0.00;nan
9091;BME280;4581;42.416;25.598;2023-04-27T05:19:53;66815.63;;;0.00;nan
9091;BME280;4581;42.416;25.598;2023-04-27T05:22:20;66818.69;;;0.00;nan
9091;BME280;4581;42.416;25.598;2023-04-27T05:24:46;66815.63;;;0.00;nan
9091;BME280;4581;42.416;25.598;2023-04-27T05:27:13;66801.91;;;0.00;nan
9091;BME280;4581;42.416;25.598;2023-04-27T05:29:40;66794.28;;;0.00;nan
9091;BME280;4581;42.416;25.598;2023-04-27T05:32:07;66786.66;;;0.00;nan
9091;BME280;4581;42.416;25.598;2023-04-27T05:34:35;66768.34;;;0.00;nan
9091;BME280;4581;42.416;25.598;2023-04-27T05:37:02;66739.34;;;0.00;nan
9091;BME280;4581;42.416;25.598;2023-04-27T05:39:29;66722.56;;;0.00;nan
9091;BME280;4581;42.416;25.598;2023-04-27T05:41:55;66708.81;;;0.00;nan
9091;BME280;4581;42.416;25.598;2023-04-27T05:44:22;66695.09;;;0.00;nan
9091;BME280;4581;42.416;25.598;2023-04-27T05:46:54;66689.00;;;0.00;nan
9091;BME280;4581;42.416;25.598;2023-04-27T05:49:21;66673.72;;;0.00;nan
9091;BME280;4581;42.416;25.598;2023-04-27T05:51:48;66666.09;;;0.00;nan
9091;BME280;4581;42.416;25.598;2023-04-27T05:54:15;66663.03;;;0.00;nan
9091;BME280;4581;42.416;25.598;2023-04-27T05:56:42;66658.47;;;0.00;nan
9091;BME280;4581;42.416;25.598;2023-04-27T05:59:08;66612.69;;;0.00;nan
9091;BME280;4581;42.416;25.598;2023-04-27T06:01:35;66548.59;;;0.00;nan
9091;BME280;4581;42.416;25.598;2023-04-27T06:04:02;66577.59;;;0.00;nan
9091;BME280;4581;42.416;25.598;2023-04-27T06:06:30;66562.34;;;0.00;nan
9091;BME280;4581;42.416;25.598;2023-04-27T06:08:57;66542.50;;;0.00;nan
9091;BME280;4581;42.416;25.598;2023-04-27T06:11:24;66534.88;;;0.00;nan
9091;BME280;4581;42.416;25.598;2023-04-27T06:13:51;66542.50;;;0.00;nan
9091;BME280;4581;42.416;25.598;2023-04-27T06:16:18;66540.97;;;0.00;nan
9091;BME280;4581;42.416;25.598;2023-04-27T06:18:46;66557.75;;;0.00;nan
9091;BME280;4581;42.416;25.598;2023-04-27T06:21:12;66554.72;;;0.00;nan
9091;BME280;4581;42.416;25.598;2023-04-27T06:23:40;66591.31;;;0.00;nan
9091;BME280;4581;42.416;25.598;2023-04-27T06:26:07;66598.97;;;0.00;nan
9091;BME280;4581;42.416;25.598;2023-04-27T06:28:34;66602.00;;;0.00;nan
9091;BME280;4581;42.416;25.598;2023-04-27T06:31:00;66608.13;;;0.00;nan
9091;BME280;4581;42.416;25.598;2023-04-27T06:33:27;66606.59;;;0.00;nan
9091;BME280;4581;42.416;25.598;2023-04-27T06:35:54;66635.59;;;0.00;nan
9091;BME280;4581;42.416;25.598;2023-04-27T06:38:20;66634.06;;;0.00;nan
9091;BME280;4581;42.416;25.598;2023-04-27T06:40:51;66635.59;;;0.00;nan
9091;BME280;4581;42.416;25.598;2023-04-27T06:43:18;66621.84;;;0.00;nan
9091;BME280;4581;42.416;25.598;2023-04-27T06:45:45;66624.91;;;0.00;nan
9091;BME280;4581;42.416;25.598;2023-04-27T06:48:12;66649.31;;;0.00;nan
9091;BME280;4581;42.416;25.598;2023-04-27T06:50:38;66649.31;;;0.00;nan
9091;BME280;4581;42.416;25.598;2023-04-27T06:53:05;66649.31;;;0.00;nan
9091;BME280;4581;42.416;25.598;2023-04-27T06:55:33;66653.88;;;0.00;nan
9091;BME280;4581;42.416;25.598;2023-04-27T06:58:00;66663.03;;;0.00;nan
9091;BME280;4581;42.416;25.598;2023-04-27T07:00:26;66660.00;;;0.00;nan
9091;BME280;4581;42.416;25.598;2023-04-27T07:02:53;66653.88;;;0.00;nan
9091;BME280;4581;42.416;25.598;2023-04-27T07:05:20;66650.84;;;0.00;nan
9091;BME280;4581;42.416;25.598;2023-04-27T07:07:47;66652.38;;;0.00;nan
9091;BME280;4581;42.416;25.598;2023-04-27T07:10:13;66660.00;;;0.00;nan
9091;BME280;4581;42.416;25.598;2023-04-27T07:12:41;66650.84;;;0.00;nan
9091;BME280;4581;42.416;25.598;2023-04-27T07:15:08;66650.84;;;0.00;nan
9091;BME280;4581;42.416;25.598;2023-04-27T07:17:35;66672.19;;;0.00;nan
9091;BME280;4581;42.416;25.598;2023-04-27T07:20:02;66675.25;;;0.00;nan
9091;BME280;4581;42.416;25.598;2023-04-27T07:22:32;66678.31;;;0.00;nan
9091;BME280;4581;42.416;25.598;2023-04-27T07:24:58;66666.09;;;0.00;nan
9091;BME280;4581;42.416;25.598;2023-04-27T07:27:25;66656.94;;;0.00;nan
9091;BME280;4581;42.416;25.598;2023-04-27T07:29:52;66650.84;;;0.00;nan
9091;BME280;4581;42.416;25.598;2023-04-27T07:32:20;66629.47;;;0.00;nan
9091;BME280;4581;42.416;25.598;2023-04-27T07:34:48;66617.28;;;0.00;nan
9091;BME280;4581;42.416;25.598;2023-04-27T07:37:20;66609.63;;;0.00;nan
9091;BME280;4581;42.416;25.598;2023-04-27T07:39:48;66602.00;;;0.00;nan
9091;BME280;4581;42.416;25.598;2023-04-27T07:42:15;66605.06;;;0.00;nan
9091;BME280;4581;42.416;25.598;2023-04-27T07:44:42;66631.00;;;0.00;nan
9091;BME280;4581;42.416;25.598;2023-04-27T07:47:09;66623.38;;;0.00;nan
9091;BME280;4581;42.416;25.598;2023-04-27T07:49:36;66609.63;;;0.00;nan
9091;BME280;4581;42.416;25.598;2023-04-27T07:52:03;66592.84;;;0.00;nan
9091;BME280;4581;42.416;25.598;2023-04-27T07:54:30;66588.28;;;0.00;nan
9091;BME280;4581;42.416;25.598;2023-04-27T07:56:57;66595.91;;;0.00;nan
9091;BME280;4581;42.416;25.598;2023-04-27T07:59:27;66586.75;;;0.00;nan
9091;BME280;4581;42.416;25.598;2023-04-27T08:01:54;66557.75;;;0.00;nan
9091;BME280;4581;42.416;25.598;2023-04-27T08:04:32;66534.88;;;0.00;nan
9091;BME280;4581;42.416;25.598;2023-04-27T08:06:59;66525.72;;;0.00;nan
9091;BME280;4581;42.416;25.598;2023-04-27T08:09:27;66519.63;;;0.00;nan
9091;BME280;4581;42.416;25.598;2023-04-27T08:11:53;66522.66;;;0.00;nan
9091;BME280;4581;42.416;25.598;2023-04-27T08:14:20;66530.28;;;0.00;nan
9091;BME280;4581;42.416;25.598;2023-04-27T08:16:47;66511.97;;;0.00;nan
9091;BME280;4581;42.416;25.598;2023-04-27T08:19:14;66492.16;;;0.00;nan
9091;BME280;4581;42.416;25.598;2023-04-27T08:21:41;66466.22;;;0.00;nan
9091;BME280;4581;42.416;25.598;2023-04-27T08:24:08;66467.72;;;0.00;nan
9091;BME280;4581;42.416;25.598;2023-04-27T08:26:35;66455.53;;;0.00;nan
9091;BME280;4581;42.416;25.598;2023-04-27T08:29:02;66429.59;;;0.00;nan
9091;BME280;4581;42.416;25.598;2023-04-27T08:31:37;66420.44;;;0.00;nan
9091;BME280;4581;42.416;25.598;2023-04-27T08:34:03;66412.81;;;0.00;nan
9091;BME280;4581;42.416;25.598;2023-04-27T08:36:30;66397.53;;;0.00;nan
9091;BME280;4581;42.416;25.598;2023-04-27T08:38:57;66373.13;;;0.00;nan
9091;BME280;4581;42.416;25.598;2023-04-27T08:41:24;66363.97;;;0.00;nan
9091;BME280;4581;42.416;25.598;2023-04-27T08:43:51;66330.41;;;0.00;nan
9091;BME280;4581;42.416;25.598;2023-04-27T08:48:50;66338.03;;;0.00;nan
9091;BME280;4581;42.416;25.598;2023-04-27T08:51:17;66345.66;;;0.00;nan
9091;BME280;4581;42.416;25.598;2023-04-27T08:53:52;66304.47;;;0.00;nan
9091;BME280;4581;42.416;25.598;2023-04-27T08:56:20;66270.91;;;0.00;nan
9091;BME280;4581;42.416;25.598;2023-04-27T08:58:51;66241.91;;;0.00;nan
9091;BME280;4581;42.416;25.598;2023-04-27T09:01:19;66260.22;;;0.00;nan
9091;BME280;4581;42.416;25.598;2023-04-27T09:03:46;66260.22;;;0.00;nan
9091;BME280;4581;42.416;25.598;2023-04-27T09:06:13;66220.53;;;0.00;nan
9091;BME280;4581;42.416;25.598;2023-04-27T09:08:46;66205.28;;;0.00;nan
9091;BME280;4581;42.416;25.598;2023-04-27T09:11:14;66182.38;;;0.00;nan
9091;BME280;4581;42.416;25.598;2023-04-27T09:13:42;66157.97;;;0.00;nan
9091;BME280;4581;42.416;25.598;2023-04-27T09:16:12;66147.28;;;0.00;nan
9091;BME280;4581;42.416;25.598;2023-04-27T09:18:43;66193.06;;;0.00;nan
9091;BME280;4581;42.416;25.598;2023-04-27T09:21:24;66161.03;;;0.00;nan
9091;BME280;4581;42.416;25.598;2023-04-27T09:23:51;66136.63;;;0.00;nan
9091;BME280;4581;42.416;25.598;2023-04-27T09:26:22;66186.97;;;0.00;nan
9091;BME280;4581;42.416;25.598;2023-04-27T09:28:51;66165.59;;;0.00;nan
9091;BME280;4581;42.416;25.598;2023-04-27T09:31:18;66174.75;;;0.00;nan
9091;BME280;4581;42.416;25.598;2023-04-27T09:33:45;66202.22;;;0.00;nan
9091;BME280;4581;42.416;25.598;2023-04-27T09:36:13;66223.59;;;0.00;nan
9091;BME280;4581;42.416;25.598;2023-04-27T09:38:40;66263.25;;;0.00;nan
9091;BME280;4581;42.416;25.598;2023-04-27T09:41:08;66301.41;;;0.00;nan
9091;BME280;4581;42.416;25.598;2023-04-27T09:43:35;66327.34;;;0.00;nan
9091;BME280;4581;42.416;25.598;2023-04-27T09:46:03;66344.13;;;0.00;nan
9091;BME280;4581;42.416;25.598;2023-04-27T09:48:30;66406.69;;;0.00;nan
9091;BME280;4581;42.416;25.598;2023-04-27T09:50:57;66415.84;;;0.00;nan
9091;BME280;4581;42.416;25.598;2023-04-27T09:53:27;66425.00;;;0.00;nan
9091;BME280;4581;42.416;25.598;2023-04-27T09:58:47;66409.75;;;0.00;nan
9091;BME280;4581;42.416;25.598;2023-04-27T10:07:10;66412.81;;;0.00;nan
9091;BME280;4581;42.416;25.598;2023-04-27T10:09:43;66409.75;;;0.00;nan
9091;BME280;4581;42.416;25.598;2023-04-27T10:12:36;66400.59;;;0.00;nan
9091;BME280;4581;42.416;25.598;2023-04-27T10:15:15;66399.06;;;0.00;nan
9091;BME280;4581;42.416;25.598;2023-04-27T10:17:49;66367.03;;;0.00;nan
9091;BME280;4581;42.416;25.598;2023-04-27T10:20:28;66353.28;;;0.00;nan
9091;BME280;4581;42.416;25.598;2023-04-27T10:22:56;66382.28;;;0.00;nan
9091;BME280;4581;42.416;25.598;2023-04-27T10:25:36;66434.16;;;0.00;nan
9091;BME280;4581;42.416;25.598;2023-04-27T10:28:04;66426.53;;;0.00;nan
9091;BME280;4581;42.416;25.598;2023-04-27T10:30:37;66429.59;;;0.00;nan
9091;BME280;4581;42.416;25.598;2023-04-27T10:33:06;66391.44;;;0.00;nan
9091;BME280;4581;42.416;25.598;2023-04-27T10:35:39;66325.81;;;0.00;nan
9091;BME280;4581;42.416;25.598;2023-04-27T10:38:17;66347.19;;;0.00;nan
9091;BME280;4581;42.416;25.598;2023-04-27T10:40:52;66315.16;;;0.00;nan
9091;BME280;4581;42.416;25.598;2023-04-27T10:43:23;66360.91;;;0.00;nan
9091;BME280;4581;42.416;25.598;2023-04-27T10:45:51;66415.84;;;0.00;nan
9091;BME280;4581;42.416;25.598;2023-04-27T10:48:18;66421.97;;;0.00;nan
9091;BME280;4581;42.416;25.598;2023-04-27T10:50:44;66421.97;;;0.00;nan
9091;BME280;4581;42.416;25.598;2023-04-27T10:53:12;66452.47;;;0.00;nan
9091;BME280;4581;42.416;25.598;2023-04-27T10:55:42;66457.06;;;0.00;nan
9091;BME280;4581;42.416;25.598;2023-04-27T10:58:09;66473.84;;;0.00;nan
9091;BME280;4581;42.416;25.598;2023-04-27T11:00:38;66463.16;;;0.00;nan
9091;BME280;4581;42.416;25.598;2023-04-27T11:03:20;66481.47;;;0.00;nan
9091;BME280;4581;42.416;25.598;2023-04-27T11:05:58;66507.41;;;0.00;nan
9091;BME280;4581;42.416;25.598;2023-04-27T11:08:25;66501.31;;;0.00;nan
9091;BME280;4581;42.416;25.598;2023-04-27T11:10:52;66508.94;;;0.00;nan
9091;BME280;4581;42.416;25.598;2023-04-27T11:13:21;66518.09;;;0.00;nan
9091;BME280;4581;42.416;25.598;2023-04-27T11:15:50;66511.97;;;0.00;nan
9091;BME280;4581;42.416;25.598;2023-04-27T11:18:18;66490.63;;;0.00;nan
9091;BME280;4581;42.416;25.598;2023-04-27T11:20:50;66484.53;;;0.00;nan
9091;BME280;4581;42.416;25.598;2023-04-27T11:23:24;66493.66;;;0.00;nan
9091;BME280;4581;42.416;25.598;2023-04-27T11:25:51;66515.03;;;0.00;nan
9091;BME280;4581;42.416;25.598;2023-04-27T11:28:19;66521.13;;;0.00;nan
9091;BME280;4581;42.416;25.598;2023-04-27T11:30:45;66515.03;;;0.00;nan
9091;BME280;4581;42.416;25.598;2023-04-27T11:33:13;66510.47;;;0.00;nan
9091;BME280;4581;42.416;25.598;2023-04-27T11:35:39;66496.72;;;0.00;nan
9091;BME280;4581;42.416;25.598;2023-04-27T11:38:14;66504.34;;;0.00;nan
9091;BME280;4581;42.416;25.598;2023-04-27T11:40:42;66499.78;;;0.00;nan
9091;BME280;4581;42.416;25.598;2023-04-27T11:43:12;66515.03;;;0.00;nan
9091;BME280;4581;42.416;25.598;2023-04-27T11:45:43;66516.56;;;0.00;nan
9091;BME280;4581;42.416;25.598;2023-04-27T11:48:15;66534.88;;;0.00;nan
9091;BME280;4581;42.416;25.598;2023-04-27T11:50:46;66511.97;;;0.00;nan
9091;BME280;4581;42.416;25.598;2023-04-27T11:53:13;66507.41;;;0.00;nan
9091;BME280;4581;42.416;25.598;2023-04-27T11:55:42;66525.72;;;0.00;nan
9091;BME280;4581;42.416;25.598;2023-04-27T11:58:14;66542.50;;;0.00;nan
9091;BME280;4581;42.416;25.598;2023-04-27T12:00:41;66556.22;;;0.00;nan
9091;BME280;4581;42.416;25.598;2023-04-27T12:03:08;66551.66;;;0.00;nan
9091;BME280;4581;42.416;25.598;2023-04-27T12:05:35;66536.41;;;0.00;nan
9091;BME280;4581;42.416;25.598;2023-04-27T12:08:02;66519.63;;;0.00;nan
9091;BME280;4581;42.416;25.598;2023-04-27T12:10:29;66550.13;;;0.00;nan
9091;BME280;4581;42.416;25.598;2023-04-27T12:12:56;66531.81;;;0.00;nan
9091;BME280;4581;42.416;25.598;2023-04-27T12:15:23;66534.88;;;0.00;nan
9091;BME280;4581;42.416;25.598;2023-04-27T12:17:49;66525.72;;;0.00;nan
9091;BME280;4581;42.416;25.598;2023-04-27T12:20:16;66537.91;;;0.00;nan
9091;BME280;4581;42.416;25.598;2023-04-27T12:22:43;66519.63;;;0.00;nan
9091;BME280;4581;42.416;25.598;2023-04-27T12:25:10;66537.91;;;0.00;nan
9091;BME280;4581;42.416;25.598;2023-04-27T12:27:37;66524.19;;;0.00;nan
9091;BME280;4581;42.416;25.598;2023-04-27T12:30:04;66516.56;;;0.00;nan
9091;BME280;4581;42.416;25.598;2023-04-27T12:32:31;66531.81;;;0.00;nan
9091;BME280;4581;42.416;25.598;2023-04-27T12:34:57;66519.63;;;0.00;nan
9091;BME280;4581;42.416;25.598;2023-04-27T12:37:24;66540.97;;;0.00;nan
9091;BME280;4581;42.416;25.598;2023-04-27T12:39:52;66530.28;;;0.00;nan
9091;BME280;4581;42.416;25.598;2023-04-27T12:42:19;66537.91;;;0.00;nan
9091;BME280;4581;42.416;25.598;2023-04-27T12:44:50;66534.88;;;0.00;nan
9091;BME280;4581;42.416;25.598;2023-04-27T12:47:17;66525.72;;;0.00;nan
9091;BME280;4581;42.416;25.598;2023-04-27T12:50:04;66544.03;;;0.00;nan
9091;BME280;4581;42.416;25.598;2023-04-27T12:52:31;66557.75;;;0.00;nan
9091;BME280;4581;42.416;25.598;2023-04-27T12:54:58;66588.28;;;0.00;nan
9091;BME280;4581;42.416;25.598;2023-04-27T12:57:25;66562.34;;;0.00;nan
9091;BME280;4581;42.416;25.598;2023-04-27T12:59:52;66545.56;;;0.00;nan
9091;BME280;4581;42.416;25.598;2023-04-27T13:02:19;66533.34;;;0.00;nan
9091;BME280;4581;42.416;25.598;2023-04-27T13:04:46;66534.88;;;0.00;nan
9091;BME280;4581;42.416;25.598;2023-04-27T13:07:12;66507.41;;;0.00;nan
9091;BME280;4581;42.416;25.598;2023-04-27T13:09:39;66489.09;;;0.00;nan
9091;BME280;4581;42.416;25.598;2023-04-27T13:12:07;66489.09;;;0.00;nan
9091;BME280;4581;42.416;25.598;2023-04-27T13:14:33;66486.03;;;0.00;nan
9091;BME280;4581;42.416;25.598;2023-04-27T13:17:00;66473.84;;;0.00;nan
9091;BME280;4581;42.416;25.598;2023-04-27T13:19:27;66458.56;;;0.00;nan
9091;BME280;4581;42.416;25.598;2023-04-27T13:21:54;66452.47;;;0.00;nan
9091;BME280;4581;42.416;25.598;2023-04-27T13:24:21;66446.38;;;0.00;nan
9091;BME280;4581;42.416;25.598;2023-04-27T13:26:50;66435.69;;;0.00;nan
9091;BME280;4581;42.416;25.598;2023-04-27T13:29:16;66434.16;;;0.00;nan
9091;BME280;4581;42.416;25.598;2023-04-27T13:31:43;66449.41;;;0.00;nan
9091;BME280;4581;42.416;25.598;2023-04-27T13:34:10;66452.47;;;0.00;nan
9091;BME280;4581;42.416;25.598;2023-04-27T13:36:37;66450.94;;;0.00;nan
9091;BME280;4581;42.416;25.598;2023-04-27T13:39:04;66440.25;;;0.00;nan
9091;BME280;4581;42.416;25.598;2023-04-27T13:41:32;66441.78;;;0.00;nan
9091;BME280;4581;42.416;25.598;2023-04-27T13:44:00;66438.75;;;0.00;nan
9091;BME280;4581;42.416;25.598;2023-04-27T13:46:27;66434.16;;;0.00;nan
9091;BME280;4581;42.416;25.598;2023-04-27T13:48:54;66429.59;;;0.00;nan
9091;BME280;4581;42.416;25.598;2023-04-27T13:51:20;66415.84;;;0.00;nan
9091;BME280;4581;42.416;25.598;2023-04-27T13:53:47;66411.28;;;0.00;nan
9091;BME280;4581;42.416;25.598;2023-04-27T13:56:14;66402.13;;;0.00;nan
9091;BME280;4581;42.416;25.598;2023-04-27T13:58:41;66399.06;;;0.00;nan